This is the latest recevied weather packets stored in our database for station/object N5ZKK. If no packets are shown the sender has not sent any weather packets the latest 10 day(s).
| Time | Temp. | Humidity | Pressure | Rain* | Wind** | Luminosity | Snow |
|---|---|---|---|---|---|---|---|
| 1777139119 | 30° C | 63% | 1011.5 hPa | 0 mm | - | - | - |
| 1777137326 | 28.89° C | 69% | 1011.7 hPa | 0 mm | - | - | - |
| 1777136748 | 28.33° C | 70% | 1011.8 hPa | 0 mm | - | - | - |
| 1777128933 | 25.56° C | 81% | 1011.4 hPa | 0 mm | - | - | - |
| 1777127739 | 24.44° C | 86% | 1011.4 hPa | 0 mm | - | - | - |
| 1777122319 | 23.33° C | 95% | 1011 hPa | 0 mm | - | - | - |
| 1777120545 | 22.78° C | 95% | 1010.7 hPa | 0 mm | - | - | - |
| 1777119947 | 22.78° C | 94% | 1010.6 hPa | 0 mm | - | - | - |
| 1777119329 | 22.78° C | 94% | 1010.6 hPa | 0 mm | - | - | - |
| 1777118731 | 22.78° C | 95% | 1010.3 hPa | 0 mm | - | - | - |
| 1777116919 | 22.78° C | 95% | 1010.2 hPa | 0 mm | - | - | - |
| 1777115125 | 22.78° C | 95% | 1010.1 hPa | 0 mm | - | - | - |
| 1777113331 | 22.78° C | 95% | 1009.7 hPa | 0 mm | - | - | - |
| 1777108529 | 22.78° C | 96% | 1009.3 hPa | 0 mm | - | - | - |
| 1777098343 | 21.11° C | 95% | 1010.1 hPa | 0 mm | - | - | - |
| 1777091716 | 21.11° C | 93% | 1010.3 hPa | 0 mm | - | - | - |
| 1777090520 | 21.67° C | 91% | 1010.3 hPa | 0 mm | - | - | - |
| 1777088116 | 22.78° C | 87% | 1010.1 hPa | 0 mm | - | - | - |
| 1777085120 | 24.44° C | 80% | 1009.6 hPa | 0 mm | - | - | - |
| 1777083924 | 25.56° C | 76% | 1009.3 hPa | 0 mm | - | - | - |
| 1777073123 | 32.22° C | 53% | 1008.3 hPa | 0 mm | - | - | - |
| 1777068925 | 33.33° C | 50% | 1008.2 hPa | 0 mm | - | - | - |
| 1777062930 | 35° C | 43% | 1009.4 hPa | 0 mm | - | - | - |
| 1777056317 | 33.89° C | 51% | 1010.8 hPa | 0 mm | - | - | - |
| 1777054543 | 31.11° C | 63% | 1011.1 hPa | 0 mm | - | - | - |
* Rain latest hour (hover to see other rain measurements)
** Current wind speed in m/s (hover to see current wind gust speed)